Time;durP1;ratioP1;P1;durP2;ratioP2;P2;SDS_P1;SDS_P2;PMS_P1;PMS_P2;Temp;Humidity;BMP_temperature;BMP_pressure;BME280_temperature;BME280_humidity;BME280_pressure;Samples;Min_cycle;Max_cycle;Signal;HPM_P1;HPM_P2
2022/07/17 00:00:46;;;;;;;5.45;1.95;;;27.20;54.50;;;;;;4825261;29;20037;-76
2022/07/17 00:03:14;;;;;;;4.82;2.25;;;27.20;54.70;;;;;;4824991;29;20110;-77
2022/07/17 00:05:40;;;;;;;5.45;1.95;;;27.10;55.00;;;;;;4824603;29;20154;-76
2022/07/17 00:08:07;;;;;;;4.03;1.90;;;27.20;55.10;;;;;;4825065;29;20060;-76
2022/07/17 00:10:34;;;;;;;4.07;2.00;;;27.10;55.20;;;;;;4823955;29;20050;-76
2022/07/17 00:12:59;;;;;;;7.30;2.17;;;27.10;55.20;;;;;;4825065;29;20156;-77
2022/07/17 00:15:26;;;;;;;5.40;2.65;;;27.00;55.30;;;;;;4825385;29;20446;-76
2022/07/17 00:17:51;;;;;;;6.50;2.47;;;27.00;55.30;;;;;;4824743;29;20045;-76
2022/07/17 00:20:17;;;;;;;12.30;3.00;;;27.00;55.20;;;;;;4838536;29;20026;-76
2022/07/17 00:22:43;;;;;;;9.15;3.13;;;27.10;54.90;;;;;;4824960;29;20050;-76
2022/07/17 00:25:10;;;;;;;8.35;3.00;;;27.10;55.20;;;;;;4824700;29;20065;-76
2022/07/17 00:27:37;;;;;;;9.52;3.35;;;27.00;55.50;;;;;;4824460;29;20037;-76
2022/07/17 00:30:03;;;;;;;9.18;3.13;;;26.90;55.80;;;;;;4824594;29;20403;-77
2022/07/17 00:32:29;;;;;;;7.53;3.58;;;26.90;56.00;;;;;;4824657;29;20026;-76
2022/07/17 00:34:55;;;;;;;7.90;3.13;;;26.80;56.30;;;;;;4824300;29;20375;-76
2022/07/17 00:37:21;;;;;;;8.68;3.42;;;26.80;56.50;;;;;;4824436;29;20050;-76
2022/07/17 00:39:47;;;;;;;11.07;3.72;;;26.70;57.30;;;;;;4823495;29;20053;-76
2022/07/17 00:42:14;;;;;;;5.88;3.30;;;26.60;56.90;;;;;;4817312;29;20038;-76
2022/07/17 00:44:40;;;;;;;5.93;3.45;;;26.60;57.30;;;;;;4835252;29;20117;-76
2022/07/17 00:47:32;;;;;;;9.40;4.28;;;26.50;57.50;;;;;;4806278;29;20512;-76
2022/07/17 00:49:58;;;;;;;;;;;26.40;58.00;;;;;;4807132;29;20039;-76
2022/07/17 00:52:23;;;;;;;4.78;3.53;;;26.30;57.80;;;;;;4815772;29;20342;-76
2022/07/17 00:54:52;;;;;;;7.05;3.55;;;26.30;58.00;;;;;;4824582;29;20098;-76
2022/07/17 00:57:20;;;;;;;7.55;3.67;;;26.30;58.10;;;;;;4824222;29;20049;-75
2022/07/17 00:59:45;;;;;;;8.60;3.83;;;26.20;58.50;;;;;;4824520;29;20033;-76
2022/07/17 01:02:13;;;;;;;6.93;2.90;;;26.20;58.00;;;;;;4823846;29;20035;-76
2022/07/17 01:04:40;;;;;;;6.28;2.70;;;26.20;58.30;;;;;;4823670;29;20062;-76
2022/07/17 01:07:07;;;;;;;6.80;2.03;;;26.20;58.50;;;;;;4823856;29;20033;-76
2022/07/17 01:09:34;;;;;;;6.75;3.20;;;26.30;58.40;;;;;;4837132;29;20388;-76
2022/07/17 01:12:00;;;;;;;4.80;3.03;;;26.20;58.40;;;;;;4823752;29;20026;-76
2022/07/17 01:14:27;;;;;;;8.80;2.70;;;26.00;58.80;;;;;;4830726;29;20885;-76
2022/07/17 01:16:54;;;;;;;6.95;3.25;;;26.00;59.30;;;;;;4847058;29;20027;-76
2022/07/17 01:19:21;;;;;;;6.50;2.90;;;26.00;59.30;;;;;;4822838;29;20030;-76
2022/07/17 01:21:49;;;;;;;11.25;3.85;;;26.00;60.20;;;;;;4823302;29;20116;-76
2022/07/17 01:24:16;;;;;;;6.57;2.78;;;25.80;60.40;;;;;;4822990;29;20043;-76
2022/07/17 01:26:43;;;;;;;4.05;2.15;;;25.80;60.50;;;;;;4823367;29;20038;-76
2022/07/17 01:29:12;;;;;;;8.95;2.95;;;25.70;60.80;;;;;;4822999;29;20023;-76
2022/07/17 01:31:39;;;;;;;8.00;2.05;;;25.60;60.70;;;;;;4822767;29;20054;-76
2022/07/17 01:34:09;;;;;;;9.25;2.40;;;25.60;60.80;;;;;;4822656;29;20034;-76
2022/07/17 01:36:35;;;;;;;6.75;2.15;;;25.60;61.00;;;;;;4837116;29;20031;-76
2022/07/17 01:39:01;;;;;;;4.32;2.60;;;25.60;61.60;;;;;;4822803;29;20452;-76
2022/07/17 01:41:27;;;;;;;4.40;2.35;;;25.60;62.00;;;;;;4835233;29;20480;-76
2022/07/17 01:43:53;;;;;;;6.85;2.53;;;25.40;61.90;;;;;;4804985;29;20035;-76
2022/07/17 01:46:18;;;;;;;4.38;2.28;;;25.50;61.80;;;;;;4810967;29;20030;-76
2022/07/17 01:48:44;;;;;;;4.32;2.00;;;25.40;61.90;;;;;;4822694;29;20035;-76
2022/07/17 01:51:10;;;;;;;5.90;3.42;;;25.30;62.10;;;;;;4822512;29;20088;-77
2022/07/17 01:53:35;;;;;;;5.47;3.30;;;25.30;62.50;;;;;;4822785;29;20035;-76
2022/07/17 01:56:01;;;;;;;8.40;3.10;;;25.20;62.50;;;;;;4822764;29;20030;-76
2022/07/17 01:58:27;;;;;;;8.30;3.10;;;25.10;63.10;;;;;;4822631;29;20102;-76
2022/07/17 02:00:53;;;;;;;8.38;3.60;;;25.20;63.40;;;;;;4824177;29;20035;-76
2022/07/17 02:03:20;;;;;;;11.95;4.38;;;25.10;63.50;;;;;;4825424;29;20038;-77
2022/07/17 02:05:46;;;;;;;7.15;3.38;;;25.10;63.70;;;;;;4825812;29;20018;-76
2022/07/17 02:08:12;;;;;;;10.15;4.38;;;25.10;63.50;;;;;;4825449;29;20056;-76
2022/07/17 02:10:37;;;;;;;8.37;3.73;;;25.00;63.60;;;;;;4783777;29;1267171;-76
2022/07/17 02:13:03;;;;;;;5.47;3.00;;;25.00;63.80;;;;;;4841065;29;20038;-76
2022/07/17 02:15:29;;;;;;;5.53;2.47;;;24.90;64.00;;;;;;4827032;29;20039;-76
2022/07/17 02:17:56;;;;;;;5.00;2.60;;;24.80;64.00;;;;;;4825922;29;20109;-76
2022/07/17 02:20:21;;;;;;;6.45;2.28;;;24.80;64.40;;;;;;4826737;29;20053;-76
2022/07/17 02:22:47;;;;;;;8.25;3.03;;;24.80;64.80;;;;;;4826706;29;20027;-76
2022/07/17 02:25:13;;;;;;;5.68;2.10;;;24.80;64.30;;;;;;4826758;29;20032;-76
2022/07/17 02:27:40;;;;;;;4.68;1.90;;;24.80;64.60;;;;;;4826396;29;20031;-76
2022/07/17 02:30:09;;;;;;;6.50;2.60;;;24.80;65.10;;;;;;4826579;29;20539;-76
2022/07/17 02:32:35;;;;;;;5.15;2.55;;;24.70;65.10;;;;;;4826087;29;20022;-76
2022/07/17 02:35:01;;;;;;;6.65;2.45;;;24.70;65.20;;;;;;4826682;29;20113;-76
2022/07/17 02:37:26;;;;;;;5.95;2.45;;;24.60;65.50;;;;;;4826364;29;20038;-75
2022/07/17 02:39:52;;;;;;;6.97;2.72;;;24.70;65.60;;;;;;4826513;29;20037;-76
2022/07/17 02:42:26;;;;;;;6.82;2.25;;;24.60;65.60;;;;;;4855412;29;20039;-76
2022/07/17 02:44:53;;;;;;;6.60;2.60;;;24.70;65.40;;;;;;4826149;29;20046;-75
2022/07/17 02:47:30;;;;;;;8.20;2.05;;;24.70;65.50;;;;;;4825801;29;20140;-76
2022/07/17 02:49:56;;;;;;;7.20;2.50;;;24.60;65.40;;;;;;4840302;29;20492;-76
2022/07/17 02:52:22;;;;;;;6.18;2.10;;;24.60;65.60;;;;;;4826123;29;20039;-76
2022/07/17 02:54:48;;;;;;;4.45;2.25;;;24.60;66.20;;;;;;4826043;29;20089;-76
2022/07/17 02:57:14;;;;;;;5.18;2.22;;;24.50;66.20;;;;;;4826310;29;20037;-76
2022/07/17 02:59:40;;;;;;;3.95;2.15;;;24.40;66.50;;;;;;4825759;29;20034;-76
2022/07/17 03:02:05;;;;;;;3.95;2.30;;;24.40;67.00;;;;;;4825997;29;20030;-76
2022/07/17 03:04:32;;;;;;;5.18;2.22;;;24.30;67.30;;;;;;4825993;29;20034;-76
2022/07/17 03:06:57;;;;;;;8.05;2.50;;;24.40;67.40;;;;;;4826169;29;20109;-76
2022/07/17 03:09:23;;;;;;;7.93;2.67;;;24.30;67.30;;;;;;4855219;29;20084;-76
2022/07/17 03:11:49;;;;;;;3.97;2.45;;;24.10;68.00;;;;;;4839372;29;20533;-76
2022/07/17 03:14:14;;;;;;;3.60;2.25;;;24.20;67.70;;;;;;4825546;29;20038;-76
2022/07/17 03:16:40;;;;;;;3.95;2.38;;;24.20;67.50;;;;;;4855288;29;20059;-76
2022/07/17 03:19:06;;;;;;;6.35;2.40;;;24.20;67.70;;;;;;4839896;29;20038;-76
2022/07/17 03:21:31;;;;;;;4.90;2.55;;;24.10;68.50;;;;;;4825397;29;20037;-76
2022/07/17 03:23:57;;;;;;;4.07;2.33;;;24.10;68.50;;;;;;4826050;29;20035;-76
2022/07/17 03:26:23;;;;;;;4.40;2.78;;;24.10;68.60;;;;;;4825610;29;20031;-77
2022/07/17 03:28:48;;;;;;;5.95;2.28;;;24.10;68.60;;;;;;4825462;29;20107;-76
2022/07/17 03:31:14;;;;;;;4.35;2.45;;;24.00;68.60;;;;;;4825416;29;20523;-75
2022/07/17 03:33:40;;;;;;;6.18;2.90;;;23.90;69.10;;;;;;4825630;29;20066;-76
2022/07/17 03:36:06;;;;;;;6.00;2.53;;;23.90;68.80;;;;;;4825318;29;20098;-76
2022/07/17 03:38:32;;;;;;;9.70;2.58;;;23.90;69.20;;;;;;4825725;29;20436;-76
2022/07/17 03:40:58;;;;;;;4.07;2.50;;;23.90;69.00;;;;;;4825409;29;20397;-75
2022/07/17 03:43:23;;;;;;;4.13;2.70;;;23.80;69.60;;;;;;4824778;29;20030;-76
2022/07/17 03:45:49;;;;;;;5.40;2.60;;;23.80;69.80;;;;;;4825251;29;20050;-76
2022/07/17 03:48:15;;;;;;;4.25;2.35;;;23.80;69.80;;;;;;4825343;29;20046;-76
2022/07/17 03:50:41;;;;;;;5.10;2.50;;;23.80;70.20;;;;;;4825421;29;20436;-75
2022/07/17 03:53:07;;;;;;;6.07;2.60;;;23.70;70.50;;;;;;4825228;29;20042;-75
2022/07/17 03:55:32;;;;;;;5.43;2.72;;;23.70;71.00;;;;;;4825253;29;20113;-76
2022/07/17 03:57:58;;;;;;;8.05;3.53;;;23.60;71.80;;;;;;4823802;29;20453;-76
2022/07/17 04:00:24;;;;;;;4.15;2.50;;;23.60;71.20;;;;;;4824907;29;20030;-75
2022/07/17 04:02:49;;;;;;;4.50;2.60;;;23.60;71.60;;;;;;4825110;29;20055;-76
2022/07/17 04:05:15;;;;;;;4.47;2.65;;;23.50;71.90;;;;;;4824759;29;20034;-76
2022/07/17 04:07:42;;;;;;;8.60;2.80;;;23.40;72.30;;;;;;4824590;29;20407;-75
2022/07/17 04:10:12;;;;;;;6.43;2.88;;;23.40;73.10;;;;;;4823914;29;20133;-76
2022/07/17 04:12:38;;;;;;;4.28;2.65;;;23.30;72.80;;;;;;4837932;29;20361;-76
2022/07/17 04:15:04;;;;;;;10.02;2.85;;;23.30;72.80;;;;;;4828188;29;20068;-76
2022/07/17 04:17:30;;;;;;;5.55;3.17;;;23.30;72.90;;;;;;4842950;29;20030;-76
2022/07/17 04:19:56;;;;;;;3.88;2.63;;;23.30;73.10;;;;;;4843262;29;20090;-76
2022/07/17 04:22:21;;;;;;;5.05;2.95;;;23.30;73.30;;;;;;4842947;29;20063;-76
2022/07/17 04:24:47;;;;;;;5.25;2.80;;;23.30;73.00;;;;;;4842401;29;20387;-75
2022/07/17 04:27:13;;;;;;;7.50;3.08;;;23.10;73.40;;;;;;4842663;29;20026;-76
2022/07/17 04:29:39;;;;;;;5.30;3.15;;;23.00;73.90;;;;;;4854087;29;20090;-76
2022/07/17 04:32:06;;;;;;;10.23;3.42;;;22.90;74.30;;;;;;4824965;29;20468;-76
2022/07/17 04:34:32;;;;;;;5.70;3.00;;;22.70;75.20;;;;;;4824479;29;20638;-76
2022/07/17 04:36:58;;;;;;;6.78;3.05;;;22.70;75.90;;;;;;4824272;29;20372;-75
2022/07/17 04:39:24;;;;;;;4.57;3.08;;;22.70;76.20;;;;;;4824910;29;20083;-76
2022/07/17 04:41:50;;;;;;;6.55;3.22;;;22.60;76.50;;;;;;4833374;29;20039;-76
2022/07/17 04:44:16;;;;;;;6.72;3.20;;;22.60;76.30;;;;;;4806146;29;20083;-76
2022/07/17 04:46:42;;;;;;;9.55;3.45;;;22.90;75.50;;;;;;4806118;29;20054;-76
2022/07/17 04:49:07;;;;;;;6.28;3.03;;;22.80;75.70;;;;;;4806534;29;20496;-76
2022/07/17 04:51:33;;;;;;;5.85;3.30;;;22.90;76.10;;;;;;4807331;29;20460;-76
2022/07/17 04:53:58;;;;;;;8.02;3.17;;;22.90;75.80;;;;;;4824679;29;20462;-76
2022/07/17 04:56:24;;;;;;;9.02;3.70;;;23.00;74.00;;;;;;4853221;29;20348;-76
2022/07/17 04:58:50;;;;;;;7.55;3.90;;;23.00;75.00;;;;;;4823567;29;20491;-76
2022/07/17 05:01:15;;;;;;;6.93;3.63;;;23.10;75.20;;;;;;4823779;29;20045;-76
2022/07/17 05:03:41;;;;;;;5.00;3.35;;;23.10;75.00;;;;;;4838052;29;20034;-75
2022/07/17 05:06:07;;;;;;;5.10;3.50;;;23.10;75.20;;;;;;4824151;29;20023;-75
2022/07/17 05:08:34;;;;;;;7.38;3.55;;;23.10;75.50;;;;;;4823990;29;20069;-76
2022/07/17 05:11:00;;;;;;;5.68;3.60;;;23.10;75.30;;;;;;4823534;29;20057;-76
2022/07/17 05:13:25;;;;;;;6.07;3.42;;;23.10;75.60;;;;;;4824156;29;20034;-76
2022/07/17 05:15:51;;;;;;;5.45;3.45;;;23.10;76.00;;;;;;4824219;29;20030;-76
2022/07/17 05:18:17;;;;;;;4.50;3.03;;;23.00;76.20;;;;;;4852710;29;20034;-76
2022/07/17 05:20:43;;;;;;;8.20;3.58;;;23.00;76.90;;;;;;4823809;29;20014;-76
2022/07/17 05:23:08;;;;;;;7.22;3.70;;;23.20;76.40;;;;;;4823997;29;20034;-76
2022/07/17 05:25:34;;;;;;;6.40;4.00;;;23.20;76.20;;;;;;4823198;29;20167;-76
2022/07/17 05:28:01;;;;;;;8.50;3.65;;;23.10;75.80;;;;;;4824181;29;20476;-76
2022/07/17 05:30:27;;;;;;;11.23;3.60;;;23.10;76.70;;;;;;4823782;29;20376;-75
2022/07/17 05:32:53;;;;;;;8.10;3.88;;;23.20;76.90;;;;;;4823732;29;20033;-76
2022/07/17 05:35:18;;;;;;;5.82;3.78;;;23.20;77.20;;;;;;4823312;29;20038;-76
2022/07/17 05:37:44;;;;;;;8.93;3.50;;;23.20;77.20;;;;;;4823354;29;20066;-75
2022/07/17 05:40:10;;;;;;;9.98;3.80;;;23.20;77.80;;;;;;4823143;29;20034;-76
2022/07/17 05:42:35;;;;;;;5.80;3.70;;;23.20;77.90;;;;;;4823358;29;20038;-75
2022/07/17 05:45:01;;;;;;;4.72;3.33;;;23.30;77.70;;;;;;4823644;29;20413;-75
2022/07/17 05:47:27;;;;;;;5.15;3.55;;;23.30;77.90;;;;;;4823892;29;20449;-75
2022/07/17 05:49:53;;;;;;;7.45;3.53;;;23.40;77.40;;;;;;4823673;29;20026;-76
2022/07/17 05:52:18;;;;;;;5.70;3.38;;;23.30;77.60;;;;;;4823543;29;20062;-75
2022/07/17 05:54:44;;;;;;;9.77;3.80;;;23.40;77.10;;;;;;4822682;29;20085;-76
2022/07/17 05:57:09;;;;;;;12.02;4.18;;;23.50;77.40;;;;;;4823668;29;20034;-76
2022/07/17 05:59:35;;;;;;;6.03;3.50;;;23.50;77.80;;;;;;4823497;29;20802;-76
2022/07/17 06:02:01;;;;;;;5.20;3.65;;;23.60;77.60;;;;;;4823851;29;20030;-76
2022/07/17 06:04:26;;;;;;;6.53;3.38;;;23.60;78.30;;;;;;4823741;29;20037;-76
2022/07/17 06:06:52;;;;;;;7.80;3.70;;;23.70;77.70;;;;;;4823399;29;20109;-85
2022/07/17 06:09:18;;;;;;;5.88;3.38;;;23.70;77.30;;;;;;4823129;29;20054;-86
2022/07/17 06:11:43;;;;;;;19.73;3.80;;;23.80;77.00;;;;;;4822579;29;20026;-85
2022/07/17 06:14:09;;;;;;;5.47;3.75;;;23.80;75.50;;;;;;4837750;29;20027;-78
2022/07/17 06:16:35;;;;;;;12.07;4.13;;;23.80;75.90;;;;;;4823584;29;20038;-74
2022/07/17 06:19:00;;;;;;;7.57;3.70;;;24.10;74.50;;;;;;4823416;29;20038;-75
2022/07/17 06:21:26;;;;;;;5.30;3.22;;;24.30;73.30;;;;;;4823704;29;20029;-76
2022/07/17 06:23:52;;;;;;;4.72;3.08;;;24.30;74.80;;;;;;4822976;29;20109;-75
2022/07/17 06:26:17;;;;;;;5.93;2.63;;;24.40;75.90;;;;;;4823471;29;20062;-74
2022/07/17 06:28:43;;;;;;;4.68;2.78;;;24.50;76.50;;;;;;4823331;29;20103;-79
2022/07/17 06:31:09;;;;;;;7.47;3.20;;;24.50;76.50;;;;;;4822158;29;20406;-79
2022/07/17 06:33:34;;;;;;;4.25;2.78;;;24.60;76.20;;;;;;4823323;29;20030;-80
2022/07/17 06:36:01;;;;;;;5.32;2.83;;;24.60;75.80;;;;;;4823603;29;20030;-80
2022/07/17 06:38:26;;;;;;;7.30;2.97;;;24.60;75.70;;;;;;4822928;29;20109;-78
2022/07/17 06:40:52;;;;;;;5.00;3.00;;;24.60;75.00;;;;;;4823387;29;20062;-76
2022/07/17 06:43:18;;;;;;;9.25;3.00;;;24.70;74.80;;;;;;4823494;29;20031;-78
2022/07/17 06:45:43;;;;;;;8.13;3.28;;;24.70;73.90;;;;;;4852598;29;20030;-77
2022/07/17 06:48:09;;;;;;;4.63;2.78;;;24.70;73.30;;;;;;4826271;29;20038;-77
2022/07/17 06:50:35;;;;;;;6.68;3.40;;;24.70;72.90;;;;;;4840220;29;20395;-78
2022/07/17 06:53:01;;;;;;;4.78;3.10;;;24.80;73.20;;;;;;4825987;29;20075;-78
2022/07/17 06:55:26;;;;;;;6.90;3.15;;;24.90;72.90;;;;;;4826312;29;20026;-78
2022/07/17 06:57:52;;;;;;;6.65;3.13;;;24.90;73.50;;;;;;4826420;29;20027;-77
2022/07/17 07:00:18;;;;;;;10.98;3.72;;;25.00;73.60;;;;;;4826458;29;20031;-77
2022/07/17 07:02:44;;;;;;;5.97;3.40;;;25.10;73.60;;;;;;4826019;29;20039;-77
2022/07/17 07:05:10;;;;;;;8.13;4.07;;;25.10;73.10;;;;;;4825958;29;20030;-77
2022/07/17 07:07:36;;;;;;;8.40;4.15;;;25.20;71.40;;;;;;4823509;29;20087;-74
2022/07/17 07:10:01;;;;;;;6.22;3.47;;;25.30;69.70;;;;;;4824870;29;20070;-74
2022/07/17 07:12:27;;;;;;;5.82;3.60;;;25.50;69.20;;;;;;4825692;29;20073;-74
2022/07/17 07:14:53;;;;;;;9.95;3.53;;;25.60;68.00;;;;;;4825056;29;20034;-74
2022/07/17 07:17:19;;;;;;;7.25;3.42;;;25.60;67.10;;;;;;4828980;29;20075;-74
2022/07/17 07:19:45;;;;;;;8.65;3.63;;;25.70;66.70;;;;;;4844288;29;20033;-74
2022/07/17 07:22:10;;;;;;;6.00;3.90;;;25.70;66.60;;;;;;4833162;29;20038;-75
2022/07/17 07:24:36;;;;;;;4.75;3.42;;;25.70;66.50;;;;;;4839599;29;20030;-74
2022/07/17 07:27:02;;;;;;;6.40;4.40;;;25.70;65.80;;;;;;4824655;29;20126;-74
2022/07/17 07:29:27;;;;;;;10.35;4.18;;;25.70;65.60;;;;;;4824743;29;20030;-74
2022/07/17 07:31:53;;;;;;;7.28;4.35;;;25.70;65.50;;;;;;4825162;29;20054;-74
2022/07/17 07:34:19;;;;;;;5.70;4.22;;;25.80;65.20;;;;;;4825425;29;20118;-74
2022/07/17 07:36:45;;;;;;;9.75;4.28;;;25.80;64.80;;;;;;4814291;29;20499;-75
2022/07/17 07:39:10;;;;;;;5.55;4.05;;;25.90;64.90;;;;;;4809119;29;20120;-74
2022/07/17 07:41:36;;;;;;;8.75;4.82;;;25.90;64.70;;;;;;4808701;29;20088;-75
2022/07/17 07:44:02;;;;;;;8.90;4.60;;;26.00;64.40;;;;;;4806970;29;20038;-76
2022/07/17 07:46:27;;;;;;;7.35;4.32;;;26.00;63.80;;;;;;4836130;29;20049;-75
2022/07/17 07:48:53;;;;;;;12.65;4.00;;;26.10;63.20;;;;;;4816488;29;20075;-74
2022/07/17 07:51:19;;;;;;;6.20;3.80;;;26.20;63.50;;;;;;4825244;29;20034;-74
2022/07/17 07:53:44;;;;;;;8.98;4.03;;;26.30;62.60;;;;;;4825149;29;20360;-74
2022/07/17 07:56:10;;;;;;;5.97;3.80;;;26.30;62.30;;;;;;4825303;29;20045;-74
2022/07/17 07:58:35;;;;;;;11.95;4.13;;;26.40;62.60;;;;;;4825254;29;20124;-73
2022/07/17 08:01:01;;;;;;;7.57;4.10;;;26.50;62.80;;;;;;4824478;29;20041;-74
2022/07/17 08:03:27;;;;;;;7.20;4.85;;;26.60;62.30;;;;;;4824671;29;20027;-74
2022/07/17 08:05:52;;;;;;;6.35;4.20;;;26.70;62.30;;;;;;4824787;29;20031;-74
2022/07/17 08:08:18;;;;;;;5.00;3.63;;;26.80;61.90;;;;;;4824878;29;20031;-74
2022/07/17 08:10:44;;;;;;;7.20;3.80;;;26.90;61.80;;;;;;4848507;29;20054;-75
2022/07/17 08:13:09;;;;;;;7.82;3.80;;;27.00;61.40;;;;;;4824650;29;20033;-74
2022/07/17 08:15:36;;;;;;;9.88;3.63;;;27.30;60.10;;;;;;4824749;29;20384;-74
2022/07/17 08:18:02;;;;;;;7.40;3.58;;;27.30;58.90;;;;;;4824228;29;20082;-74
2022/07/17 08:20:27;;;;;;;4.65;3.63;;;27.50;59.00;;;;;;4824297;29;20387;-74
2022/07/17 08:22:53;;;;;;;7.22;3.80;;;27.70;59.10;;;;;;4824908;29;20030;-74
2022/07/17 08:25:19;;;;;;;6.60;2.97;;;27.70;57.50;;;;;;4824834;29;20437;-74
2022/07/17 08:27:45;;;;;;;5.25;3.58;;;27.80;56.90;;;;;;4824569;29;20022;-74
2022/07/17 08:30:12;;;;;;;5.30;3.47;;;28.10;57.00;;;;;;4821289;29;20617;-74
2022/07/17 08:32:38;;;;;;;8.68;3.45;;;28.40;56.40;;;;;;4822686;29;20563;-75
2022/07/17 08:35:05;;;;;;;7.47;3.10;;;28.60;55.80;;;;;;4836896;29;20034;-74
2022/07/17 08:37:41;;;;;;;5.65;3.30;;;28.70;55.80;;;;;;4837083;29;20044;-74
2022/07/17 08:40:07;;;;;;;6.22;3.70;;;28.70;55.90;;;;;;4830579;29;20034;-73
2022/07/17 08:42:42;;;;;;;5.78;3.55;;;29.00;56.00;;;;;;4823345;29;20053;-74
2022/07/17 08:45:09;;;;;;;5.78;3.00;;;29.30;55.30;;;;;;4852335;29;20505;-74
2022/07/17 08:47:35;;;;;;;5.85;3.60;;;29.60;54.40;;;;;;4822973;29;20014;-74
2022/07/17 08:50:03;;;;;;;7.38;3.25;;;29.90;54.50;;;;;;4823446;29;20030;-74
2022/07/17 08:52:29;;;;;;;6.28;3.95;;;30.00;54.00;;;;;;4822888;29;20063;-74
2022/07/17 08:54:55;;;;;;;8.38;3.45;;;30.30;53.20;;;;;;4822887;29;20030;-74
2022/07/17 08:57:20;;;;;;;4.75;3.60;;;30.40;53.80;;;;;;4823295;29;20042;-74
2022/07/17 08:59:49;;;;;;;3.72;2.90;;;30.80;53.20;;;;;;4823463;29;20030;-74
2022/07/17 09:02:15;;;;;;;9.27;3.50;;;31.10;52.70;;;;;;4821835;29;20542;-74
2022/07/17 09:04:41;;;;;;;6.80;3.45;;;31.20;52.10;;;;;;4822339;29;20057;-74
2022/07/17 09:07:06;;;;;;;7.07;2.97;;;31.30;52.10;;;;;;4822540;29;20025;-74
2022/07/17 09:09:36;;;;;;;7.78;3.40;;;31.50;51.70;;;;;;4819930;29;20068;-74
2022/07/17 09:12:05;;;;;;;5.93;3.30;;;31.50;51.00;;;;;;4823020;29;20091;-74
2022/07/17 09:14:39;;;;;;;10.82;3.75;;;31.50;51.60;;;;;;4823753;29;20099;-74
2022/07/17 09:17:06;;;;;;;5.03;3.40;;;31.90;51.70;;;;;;4822958;29;20127;-74
2022/07/17 09:19:40;;;;;;;9.10;3.58;;;32.10;51.20;;;;;;4823622;29;20033;-73
2022/07/17 09:22:11;;;;;;;8.95;3.50;;;32.20;50.30;;;;;;4822997;29;20034;-74
2022/07/17 09:24:52;;;;;;;8.52;3.10;;;32.40;49.50;;;;;;4823601;29;20078;-74
2022/07/17 09:27:23;;;;;;;7.15;2.92;;;32.70;48.80;;;;;;4823714;29;20436;-74
2022/07/17 09:30:02;;;;;;;9.10;2.65;;;33.10;48.50;;;;;;4823783;29;20068;-74
2022/07/17 09:32:31;;;;;;;5.88;3.05;;;33.20;47.50;;;;;;4823460;29;20038;-74
2022/07/17 09:35:00;;;;;;;4.57;2.85;;;33.30;47.30;;;;;;4823613;29;20490;-73
2022/07/17 09:37:28;;;;;;;3.97;2.75;;;33.50;47.50;;;;;;4822829;29;20146;-73
2022/07/17 09:39:54;;;;;;;8.35;3.33;;;33.70;46.40;;;;;;4823886;29;20038;-73
2022/07/17 09:42:24;;;;;;;4.60;3.00;;;33.70;45.60;;;;;;4823404;29;20037;-73
2022/07/17 09:45:01;;;;;;;3.85;2.95;;;33.80;45.30;;;;;;4823558;29;20046;-73
2022/07/17 09:47:28;;;;;;;6.20;3.17;;;34.00;45.10;;;;;;4823218;29;20027;-73
2022/07/17 09:49:55;;;;;;;4.40;2.72;;;33.90;44.00;;;;;;4837613;29;20037;-73
2022/07/17 09:52:27;;;;;;;4.88;2.85;;;33.50;43.50;;;;;;4823806;29;20029;-74
2022/07/17 09:54:54;;;;;;;4.30;2.90;;;33.60;44.20;;;;;;4836183;29;20130;-74
2022/07/17 09:57:31;;;;;;;7.15;2.97;;;33.90;43.80;;;;;;4836496;29;20040;-74
2022/07/17 10:00:06;;;;;;;6.65;3.20;;;34.30;42.70;;;;;;4822915;29;20034;-74
2022/07/17 10:02:33;;;;;;;8.45;2.88;;;34.60;42.80;;;;;;4822890;29;20392;-74
2022/07/17 10:05:00;;;;;;;7.40;3.17;;;34.80;43.00;;;;;;4817405;29;20512;-73
2022/07/17 10:07:26;;;;;;;3.55;2.47;;;34.90;42.20;;;;;;4805464;29;20031;-73
2022/07/17 10:09:52;;;;;;;4.10;2.70;;;34.80;41.90;;;;;;4804881;29;20055;-73
2022/07/17 10:12:19;;;;;;;4.43;2.92;;;34.60;41.70;;;;;;4821410;29;20038;-73
2022/07/17 10:14:47;;;;;;;5.18;2.78;;;34.50;41.30;;;;;;4822944;29;20121;-74
2022/07/17 10:17:14;;;;;;;5.90;2.83;;;34.90;41.20;;;;;;4822847;29;20083;-74
2022/07/17 10:19:52;;;;;;;4.90;2.75;;;35.20;41.50;;;;;;4823348;29;20026;-74
2022/07/17 10:22:19;;;;;;;2.90;2.22;;;35.50;41.10;;;;;;4810042;29;20031;-74
2022/07/17 10:24:56;;;;;;;7.20;3.00;;;35.60;40.80;;;;;;4828414;29;20427;-73
2022/07/17 10:27:28;;;;;;;4.63;2.70;;;35.70;41.20;;;;;;4826710;29;20083;-74
2022/07/17 10:30:07;;;;;;;7.47;2.92;;;35.90;39.40;;;;;;4826182;29;20030;-75
2022/07/17 10:32:33;;;;;;;6.88;2.90;;;35.90;40.30;;;;;;4826554;29;20054;-74
2022/07/17 10:35:08;;;;;;;3.72;2.33;;;35.90;40.70;;;;;;4826598;29;20094;-74
2022/07/17 10:37:40;;;;;;;3.47;2.45;;;35.80;39.80;;;;;;4808751;29;20038;-74
2022/07/17 10:40:11;;;;;;;6.05;2.83;;;35.90;40.00;;;;;;4821088;29;20034;-75
2022/07/17 10:42:58;;;;;;;5.13;2.75;;;35.50;39.90;;;;;;4825762;29;20475;-75
2022/07/17 10:45:37;;;;;;;7.20;2.30;;;35.90;40.20;;;;;;4825766;29;20125;-75
2022/07/17 10:48:09;;;;;;;15.05;3.15;;;36.20;40.80;;;;;;4826340;29;20020;-74
2022/07/17 10:50:45;;;;;;;7.93;2.53;;;36.20;38.90;;;;;;4825560;29;20035;-74
2022/07/17 10:53:11;;;;;;;3.80;2.22;;;36.40;39.90;;;;;;4824680;29;20035;-75
2022/07/17 10:55:40;;;;;;;3.33;2.30;;;36.40;38.30;;;;;;4839860;29;20054;-74
2022/07/17 10:58:28;;;;;;;5.28;2.58;;;36.30;38.70;;;;;;4825735;29;20031;-75
2022/07/17 11:01:05;;;;;;;7.97;2.00;;;36.20;39.00;;;;;;4824217;29;20037;-74
2022/07/17 11:03:40;;;;;;;33.83;3.67;;;36.40;39.20;;;;;;4825881;29;20030;-74
2022/07/17 11:06:15;;;;;;;9.65;2.38;;;36.40;37.20;;;;;;4825996;29;20038;-74
2022/07/17 11:08:52;;;;;;;4.75;2.17;;;36.70;38.00;;;;;;4825059;29;20050;-75
2022/07/17 11:11:20;;;;;;;5.63;1.90;;;36.90;37.80;;;;;;4816428;29;20189;-75
2022/07/17 11:13:47;;;;;;;19.80;2.88;;;36.90;37.60;;;;;;4825682;29;20031;-74
2022/07/17 11:16:24;;;;;;;16.88;2.53;;;37.10;37.50;;;;;;4826028;29;20117;-74
2022/07/17 11:18:51;;;;;;;5.90;2.45;;;36.90;37.80;;;;;;4825719;29;20052;-74
2022/07/17 11:21:16;;;;;;;23.10;3.25;;;36.30;37.60;;;;;;4824218;29;20035;-75
2022/07/17 11:23:54;;;;;;;6.10;2.00;;;36.60;37.40;;;;;;4817942;29;20033;-74
2022/07/17 11:26:21;;;;;;;8.73;2.40;;;37.00;36.90;;;;;;4834238;29;20552;-74
2022/07/17 11:28:48;;;;;;;8.90;2.60;;;36.90;36.00;;;;;;4814536;29;20053;-75
2022/07/17 11:31:20;;;;;;;3.35;2.00;;;37.20;35.70;;;;;;4807932;29;20042;-73
2022/07/17 11:33:55;;;;;;;3.25;1.90;;;37.30;35.30;;;;;;4817915;29;20049;-74
2022/07/17 11:36:25;;;;;;;3.05;1.85;;;37.50;34.10;;;;;;4823731;29;20031;-74
2022/07/17 11:38:53;;;;;;;2.33;1.60;;;37.30;34.60;;;;;;4820390;29;20023;-76
2022/07/17 11:41:19;;;;;;;6.50;2.08;;;37.60;34.50;;;;;;4823991;29;20396;-74
2022/07/17 11:43:45;;;;;;;4.07;2.03;;;37.60;35.20;;;;;;4820682;29;20036;-74
2022/07/17 11:46:11;;;;;;;5.15;2.28;;;37.00;35.20;;;;;;4818251;29;20023;-75
2022/07/17 11:48:39;;;;;;;4.32;2.13;;;36.80;36.00;;;;;;4819540;29;20053;-74
2022/07/17 11:51:05;;;;;;;6.18;1.98;;;37.10;36.10;;;;;;4819584;29;20098;-74
2022/07/17 11:53:33;;;;;;;4.25;2.13;;;37.50;34.90;;;;;;4817207;29;20500;-74
2022/07/17 11:56:00;;;;;;;4.32;1.83;;;37.90;34.80;;;;;;4814386;29;20022;-75
2022/07/17 11:58:26;;;;;;;19.23;4.93;;;37.90;34.70;;;;;;4818418;29;20491;-79
2022/07/17 12:01:03;;;;;;;5.57;2.72;;;37.00;35.80;;;;;;4815862;29;20570;-78
2022/07/17 12:03:29;;;;;;;6.30;2.45;;;36.80;36.20;;;;;;4824464;29;20022;-77
2022/07/17 12:05:55;;;;;;;5.95;2.40;;;36.80;36.00;;;;;;4824211;29;20045;-77
2022/07/17 12:08:21;;;;;;;5.38;2.20;;;36.80;37.10;;;;;;4816765;29;20442;-77
2022/07/17 12:10:47;;;;;;;3.55;2.15;;;37.60;35.80;;;;;;4823167;29;20145;-78
2022/07/17 12:13:16;;;;;;;7.20;2.13;;;37.80;36.10;;;;;;4821361;29;20398;-78
2022/07/17 12:15:49;;;;;;;7.75;2.25;;;37.80;35.90;;;;;;4821250;29;20038;-76
2022/07/17 12:18:23;;;;;;;6.78;2.40;;;37.80;36.00;;;;;;4809698;29;20034;-74
2022/07/17 12:20:51;;;;;;;4.85;2.00;;;38.10;35.60;;;;;;4808157;29;20072;-75
2022/07/17 12:23:34;;;;;;;8.80;1.98;;;37.80;34.70;;;;;;4814731;29;20035;-74
2022/07/17 12:26:07;;;;;;;4.97;2.10;;;37.80;35.00;;;;;;4823853;29;20547;-74
2022/07/17 12:28:33;;;;;;;10.35;2.20;;;38.20;34.90;;;;;;4824241;29;20030;-74
2022/07/17 12:30:59;;;;;;;5.35;1.70;;;38.40;34.20;;;;;;4824393;29;20102;-74
2022/07/17 12:33:24;;;;;;;5.50;1.70;;;38.50;32.60;;;;;;4836791;29;20186;-74
2022/07/17 12:35:50;;;;;;;4.10;1.90;;;38.60;33.00;;;;;;4824187;29;20038;-74
2022/07/17 12:38:16;;;;;;;5.07;2.03;;;38.40;32.60;;;;;;4824131;29;20030;-74
2022/07/17 12:40:41;;;;;;;2.17;1.67;;;38.50;33.30;;;;;;4823356;29;20035;-78
2022/07/17 12:43:08;;;;;;;3.33;2.00;;;38.50;32.80;;;;;;4822687;29;20043;-75
2022/07/17 12:45:34;;;;;;;2.65;1.80;;;38.70;32.40;;;;;;4823962;29;20034;-75